Time;durP1;ratioP1;P1;durP2;ratioP2;P2;SDS_P1;SDS_P2;PMS_P1;PMS_P2;Temp;Humidity;BMP_temperature;BMP_pressure;BME280_temperature;BME280_humidity;BME280_pressure;Samples;Min_cycle;Max_cycle;Signal;HPM_P1;HPM_P2
2023/06/23 00:02:05;;;;;;;25.20;23.00;;;26.20;99.90;;;;;;6250945;28;20219;-64
2023/06/23 00:05:09;;;;;;;25.20;22.63;;;26.20;99.90;;;;;;6250767;28;20233;-65
2023/06/23 00:08:12;;;;;;;23.50;21.37;;;26.20;99.90;;;;;;6250930;28;20572;-63
2023/06/23 00:11:15;;;;;;;23.27;21.13;;;26.10;99.90;;;;;;6250963;28;20227;-63
2023/06/23 00:14:19;;;;;;;24.00;21.80;;;26.10;99.90;;;;;;6250729;28;20235;-64
2023/06/23 00:17:24;;;;;;;24.53;22.33;;;26.10;99.90;;;;;;6251295;28;20310;-65
2023/06/23 00:20:28;;;;;;;24.83;22.63;;;26.00;99.90;;;;;;6251354;28;20242;-65
2023/06/23 00:23:37;;;;;;;25.47;22.97;;;25.90;99.90;;;;;;6251162;28;20544;-65
2023/06/23 00:26:40;;;;;;;25.33;22.87;;;25.90;99.90;;;;;;6251186;28;20244;-65
2023/06/23 00:29:44;;;;;;;26.57;23.97;;;25.90;99.90;;;;;;6250793;28;20231;-64
2023/06/23 00:32:48;;;;;;;26.33;23.63;;;25.80;99.90;;;;;;6250580;28;20231;-64
2023/06/23 00:35:51;;;;;;;26.33;23.57;;;25.80;99.90;;;;;;6250626;28;20310;-64
2023/06/23 00:38:55;;;;;;;23.07;21.07;;;25.70;99.90;;;;;;6250506;28;20719;-62
2023/06/23 00:42:03;;;;;;;27.13;24.20;;;25.70;99.90;;;;;;6250789;28;20239;-64
2023/06/23 00:45:07;;;;;;;25.93;23.20;;;25.60;99.90;;;;;;6250356;28;20817;-64
2023/06/23 00:48:14;;;;;;;25.40;23.10;;;25.50;99.90;;;;;;6250356;28;20517;-64
2023/06/23 00:51:17;;;;;;;24.43;21.93;;;25.50;99.90;;;;;;6250432;28;20227;-64
2023/06/23 00:54:24;;;;;;;25.33;22.77;;;25.50;99.90;;;;;;6250555;28;20346;-64
2023/06/23 00:57:28;;;;;;;25.27;22.97;;;25.50;99.90;;;;;;6250248;28;20681;-63
2023/06/23 01:00:32;;;;;;;26.53;24.10;;;25.50;99.90;;;;;;6250343;28;20810;-62
2023/06/23 01:03:36;;;;;;;25.23;22.67;;;25.40;99.90;;;;;;6250028;28;20234;-62
2023/06/23 01:06:48;;;;;;;25.33;22.70;;;25.40;99.90;;;;;;6250632;28;20227;-62
2023/06/23 01:09:58;;;;;;;24.03;21.77;;;25.40;99.90;;;;;;6250239;28;20214;-62
2023/06/23 01:13:07;;;;;;;23.70;21.43;;;25.40;99.90;;;;;;6249806;28;20239;-64
2023/06/23 01:16:15;;;;;;;24.93;21.67;;;25.30;99.90;;;;;;6250436;28;20224;-64
2023/06/23 01:19:28;;;;;;;24.53;22.10;;;25.30;99.90;;;;;;6250015;28;20238;-62
2023/06/23 01:22:37;;;;;;;24.80;22.73;;;25.20;99.90;;;;;;6249992;28;20227;-63
2023/06/23 01:25:53;;;;;;;24.50;22.40;;;25.20;99.90;;;;;;6250088;28;20236;-63
2023/06/23 01:29:01;;;;;;;25.67;23.10;;;25.20;99.90;;;;;;6249834;28;20315;-64
2023/06/23 01:32:17;;;;;;;24.60;22.30;;;25.20;99.90;;;;;;6250018;28;20223;-64
2023/06/23 01:35:24;;;;;;;25.00;22.57;;;25.10;99.90;;;;;;6249768;28;20564;-64
2023/06/23 01:38:41;;;;;;;27.10;24.30;;;25.00;99.90;;;;;;6250057;28;20228;-64
2023/06/23 01:41:52;;;;;;;27.13;24.70;;;25.00;99.90;;;;;;6249947;28;20224;-64
2023/06/23 01:44:59;;;;;;;25.10;22.70;;;24.80;99.90;;;;;;6249853;28;20234;-64
2023/06/23 01:48:07;;;;;;;24.70;22.43;;;24.80;99.90;;;;;;6249645;28;20322;-64
2023/06/23 01:51:12;;;;;;;25.93;23.33;;;24.80;99.90;;;;;;6249770;28;20235;-64
2023/06/23 01:54:16;;;;;;;25.43;23.00;;;24.80;99.90;;;;;;6249443;28;20228;-64
2023/06/23 01:57:21;;;;;;;26.20;23.90;;;24.80;99.90;;;;;;6249597;28;20315;-64
2023/06/23 02:00:26;;;;;;;25.47;23.27;;;24.70;99.90;;;;;;6249796;28;20238;-64
2023/06/23 02:03:31;;;;;;;25.10;22.63;;;24.70;99.90;;;;;;6249442;28;20726;-64
2023/06/23 02:06:37;;;;;;;24.40;22.03;;;24.60;99.90;;;;;;6248947;28;20681;-64
2023/06/23 02:09:43;;;;;;;27.27;24.70;;;24.60;99.90;;;;;;6249212;28;20534;-64
2023/06/23 02:12:47;;;;;;;25.50;23.10;;;24.60;99.90;;;;;;6249703;28;20200;-64
2023/06/23 02:15:53;;;;;;;25.57;23.30;;;24.60;99.90;;;;;;6249220;28;20200;-63
2023/06/23 02:18:58;;;;;;;25.63;23.23;;;24.60;99.90;;;;;;6249257;28;20228;-63
2023/06/23 02:22:03;;;;;;;25.63;23.17;;;24.60;99.90;;;;;;6249357;28;20220;-63
2023/06/23 02:25:07;;;;;;;23.83;21.50;;;24.60;99.90;;;;;;6250841;28;20236;-64
2023/06/23 02:28:12;;;;;;;24.70;22.50;;;24.60;99.90;;;;;;6249033;28;20242;-64
2023/06/23 02:31:18;;;;;;;25.07;22.87;;;24.60;99.90;;;;;;6249193;28;20659;-64
2023/06/23 02:34:21;;;;;;;25.30;22.80;;;24.60;99.90;;;;;;6249429;28;20279;-64
2023/06/23 02:37:26;;;;;;;25.03;22.30;;;24.60;99.90;;;;;;6253145;28;20236;-64
2023/06/23 02:40:33;;;;;;;24.00;21.57;;;24.60;99.90;;;;;;6253847;28;20277;-63
2023/06/23 02:43:43;;;;;;;25.73;23.27;;;24.60;99.90;;;;;;6253489;28;20710;-63
2023/06/23 02:46:55;;;;;;;25.03;22.73;;;24.60;99.90;;;;;;6253225;28;20315;-64
2023/06/23 02:50:04;;;;;;;24.63;22.33;;;24.50;99.90;;;;;;6253898;28;20239;-63
2023/06/23 02:53:10;;;;;;;26.23;23.63;;;24.50;99.90;;;;;;6253466;28;20242;-64
2023/06/23 02:56:18;;;;;;;25.47;22.90;;;24.50;99.90;;;;;;6253168;28;20282;-63
2023/06/23 02:59:24;;;;;;;26.73;24.20;;;24.50;99.90;;;;;;6253603;28;20251;-63
2023/06/23 03:02:31;;;;;;;26.27;23.97;;;24.40;99.90;;;;;;6253954;28;20311;-63
2023/06/23 03:05:34;;;;;;;25.27;22.97;;;24.40;99.90;;;;;;6253682;28;20367;-64
2023/06/23 03:08:38;;;;;;;26.20;23.67;;;24.40;99.90;;;;;;6253019;28;20235;-64
2023/06/23 03:11:41;;;;;;;24.43;22.30;;;24.40;99.90;;;;;;6252919;28;20242;-64
2023/06/23 03:14:45;;;;;;;24.30;21.90;;;24.40;99.90;;;;;;6252961;28;20228;-63
2023/06/23 03:17:53;;;;;;;25.57;22.93;;;24.30;99.90;;;;;;6252330;28;20240;-63
2023/06/23 03:21:00;;;;;;;26.20;23.63;;;24.30;99.90;;;;;;6253011;28;20224;-63
2023/06/23 03:24:08;;;;;;;25.83;23.43;;;24.30;99.90;;;;;;6253210;28;20234;-63
2023/06/23 03:27:13;;;;;;;23.20;21.10;;;24.30;99.90;;;;;;6252757;28;20258;-63
2023/06/23 03:30:24;;;;;;;25.57;23.27;;;24.30;99.90;;;;;;6252612;28;20227;-63
2023/06/23 03:33:33;;;;;;;25.73;23.30;;;24.30;99.90;;;;;;6252386;28;20242;-64
2023/06/23 03:36:39;;;;;;;24.50;22.10;;;24.20;99.90;;;;;;6252046;28;20619;-64
2023/06/23 03:39:45;;;;;;;26.60;23.87;;;24.20;99.90;;;;;;6252359;28;20628;-64
2023/06/23 03:42:54;;;;;;;25.30;22.67;;;24.20;99.90;;;;;;6252279;28;20204;-64
2023/06/23 03:46:04;;;;;;;24.03;21.70;;;24.20;99.90;;;;;;6251971;28;20223;-64
2023/06/23 03:49:10;;;;;;;25.63;23.07;;;24.20;99.90;;;;;;6252617;28;20240;-64
2023/06/23 03:52:16;;;;;;;26.90;24.10;;;24.20;99.90;;;;;;6251973;28;20549;-64
2023/06/23 03:55:21;;;;;;;25.30;23.07;;;24.20;99.90;;;;;;6251864;28;20238;-64
2023/06/23 03:58:26;;;;;;;28.50;24.53;;;24.30;99.90;;;;;;6251494;28;20228;-64
2023/06/23 04:01:30;;;;;;;25.00;22.60;;;24.20;99.90;;;;;;6251447;28;20548;-63
2023/06/23 04:04:38;;;;;;;25.17;22.70;;;24.30;99.90;;;;;;6251447;28;20228;-63
2023/06/23 04:07:43;;;;;;;24.67;22.40;;;24.40;99.90;;;;;;6250969;28;20239;-63
2023/06/23 04:10:48;;;;;;;26.13;22.93;;;24.50;99.90;;;;;;6251145;28;20238;-63
2023/06/23 04:13:51;;;;;;;25.93;23.33;;;24.50;99.90;;;;;;6252288;28;20240;-63
2023/06/23 04:16:55;;;;;;;24.47;22.27;;;24.60;99.90;;;;;;6251261;28;20563;-63
2023/06/23 04:20:03;;;;;;;23.50;20.90;;;24.60;99.90;;;;;;6251862;28;20232;-63
2023/06/23 04:23:07;;;;;;;25.70;23.40;;;24.70;99.90;;;;;;6252197;28;20267;-63
2023/06/23 04:26:12;;;;;;;24.97;22.67;;;24.80;99.90;;;;;;6251631;28;20346;-64
2023/06/23 04:29:18;;;;;;;24.90;22.30;;;24.80;99.90;;;;;;6250791;28;20592;-64
2023/06/23 04:32:24;;;;;;;23.90;21.67;;;25.00;99.90;;;;;;6251134;28;20246;-63
2023/06/23 04:35:29;;;;;;;26.03;23.40;;;25.00;99.90;;;;;;6250904;28;20322;-64
2023/06/23 04:38:35;;;;;;;24.23;21.93;;;25.10;99.90;;;;;;6250872;28;20236;-64
2023/06/23 04:41:41;;;;;;;23.80;21.70;;;25.20;99.90;;;;;;6250977;28;20228;-64
2023/06/23 04:44:49;;;;;;;25.23;22.87;;;25.20;99.90;;;;;;6250701;28;20223;-64
2023/06/23 04:47:55;;;;;;;24.30;21.87;;;25.30;99.90;;;;;;6251240;28;20672;-63
2023/06/23 04:51:02;;;;;;;25.67;23.27;;;25.30;99.90;;;;;;6251605;28;20270;-63
2023/06/23 04:54:11;;;;;;;22.47;20.50;;;25.40;99.90;;;;;;6251084;28;20242;-63
2023/06/23 04:57:18;;;;;;;24.10;21.83;;;25.40;99.90;;;;;;6250318;28;20215;-63
2023/06/23 05:00:24;;;;;;;25.17;22.60;;;25.50;99.90;;;;;;6249900;28;20663;-63
2023/06/23 05:03:28;;;;;;;25.50;23.30;;;25.50;99.90;;;;;;6247932;28;20230;-63
2023/06/23 05:06:35;;;;;;;24.47;22.10;;;25.50;99.90;;;;;;6249678;28;20675;-63
2023/06/23 05:09:41;;;;;;;23.30;21.20;;;25.60;99.90;;;;;;6250016;28;20543;-63
2023/06/23 05:12:46;;;;;;;25.60;22.87;;;25.70;99.90;;;;;;6249640;28;20207;-63
2023/06/23 05:15:50;;;;;;;25.83;23.23;;;25.80;99.90;;;;;;6249898;28;20381;-63
2023/06/23 05:18:55;;;;;;;25.83;22.67;;;25.90;99.90;;;;;;6250503;28;20671;-63
2023/06/23 05:22:00;;;;;;;24.57;22.20;;;26.10;99.90;;;;;;6251091;28;20238;-63
2023/06/23 05:25:05;;;;;;;23.40;21.17;;;26.20;99.90;;;;;;6251261;28;20223;-63
2023/06/23 05:28:12;;;;;;;23.70;21.33;;;26.40;99.90;;;;;;6250281;28;20235;-63
2023/06/23 05:31:17;;;;;;;23.07;20.87;;;26.60;99.90;;;;;;6250261;28;20239;-63
2023/06/23 05:34:24;;;;;;;23.27;20.93;;;26.80;99.90;;;;;;6249869;28;20228;-63
2023/06/23 05:37:30;;;;;;;21.33;19.27;;;27.00;99.90;;;;;;6249663;28;20254;-63
2023/06/23 05:40:33;;;;;;;23.97;21.77;;;27.10;99.90;;;;;;6249744;28;20228;-64
2023/06/23 05:43:37;;;;;;;24.10;21.80;;;27.30;99.90;;;;;;6250279;28;20270;-63
2023/06/23 05:46:44;;;;;;;23.20;20.87;;;27.40;99.90;;;;;;6249626;28;20562;-63
2023/06/23 05:49:49;;;;;;;23.80;21.37;;;27.50;99.90;;;;;;6249711;28;20660;-63
2023/06/23 05:52:59;;;;;;;22.60;20.70;;;27.70;99.90;;;;;;6249565;28;20227;-63
2023/06/23 05:56:07;;;;;;;23.70;21.40;;;27.80;99.90;;;;;;6249312;28;20321;-63
2023/06/23 05:59:33;;;;;;;21.20;19.30;;;27.90;99.90;;;;;;6249373;28;20242;-63
2023/06/23 06:02:39;;;;;;;22.97;20.57;;;28.00;99.90;;;;;;6250814;28;20228;-63
2023/06/23 06:05:47;;;;;;;21.73;18.97;;;28.30;99.90;;;;;;6251226;28;20224;-63
2023/06/23 06:08:54;;;;;;;20.63;18.60;;;28.40;99.90;;;;;;6249615;28;20246;-63
2023/06/23 06:11:59;;;;;;;23.97;18.23;;;28.70;99.90;;;;;;6253131;28;20228;-63
2023/06/23 06:15:04;;;;;;;19.20;17.40;;;29.10;99.90;;;;;;6254415;28;20246;-63
2023/06/23 06:18:11;;;;;;;17.93;16.30;;;29.60;99.90;;;;;;6253761;28;20228;-63
2023/06/23 06:21:18;;;;;;;15.17;13.60;;;29.70;98.60;;;;;;6253682;28;20532;-63
2023/06/23 06:24:25;;;;;;;20.90;14.57;;;29.70;98.30;;;;;;6253717;28;20228;-63
2023/06/23 06:27:30;;;;;;;19.37;14.83;;;29.70;97.70;;;;;;6253418;28;20668;-63
2023/06/23 06:30:34;;;;;;;17.80;13.60;;;29.50;97.10;;;;;;6253542;28;20523;-63
2023/06/23 06:33:38;;;;;;;20.97;15.77;;;29.40;97.20;;;;;;6253585;28;20301;-63
2023/06/23 06:36:43;;;;;;;15.30;13.70;;;29.30;96.70;;;;;;6253469;28;20238;-63
2023/06/23 06:39:49;;;;;;;17.17;15.47;;;29.20;97.40;;;;;;6245466;28;20501;-63
2023/06/23 06:42:53;;;;;;;20.47;15.67;;;29.10;97.60;;;;;;6253295;28;20214;-63
2023/06/23 06:45:56;;;;;;;21.30;17.87;;;29.20;97.80;;;;;;6253385;28;20299;-63
2023/06/23 06:49:00;;;;;;;21.17;19.13;;;29.10;98.00;;;;;;6253354;28;20313;-63
2023/06/23 06:52:05;;;;;;;19.30;17.33;;;29.10;99.40;;;;;;6253228;28;20227;-63
2023/06/23 06:55:15;;;;;;;22.50;20.10;;;29.10;99.70;;;;;;6253198;28;20223;-63
2023/06/23 06:58:18;;;;;;;22.30;19.90;;;29.30;99.90;;;;;;6253470;28;20246;-63
2023/06/23 07:01:22;;;;;;;23.23;20.93;;;29.50;99.90;;;;;;6253036;28;20242;-63
2023/06/23 07:04:27;;;;;;;23.75;20.05;;;29.90;99.40;;;;;;6252943;28;20309;-63
2023/06/23 07:07:31;;;;;;;20.00;18.05;;;30.00;99.10;;;;;;6252845;28;20232;-63
2023/06/23 07:10:36;;;;;;;22.65;20.40;;;29.90;98.50;;;;;;6252737;28;20238;-63
2023/06/23 07:13:39;;;;;;;18.70;16.80;;;29.80;98.20;;;;;;6253069;28;20561;-63
2023/06/23 07:16:42;;;;;;;26.27;18.55;;;29.70;98.20;;;;;;6245242;28;20684;-63
2023/06/23 07:19:48;;;;;;;19.87;17.63;;;29.60;97.50;;;;;;6245406;28;20293;-63
2023/06/23 07:22:52;;;;;;;21.30;16.93;;;29.40;97.60;;;;;;6252778;28;20310;-63
2023/06/23 07:25:57;;;;;;;22.13;18.90;;;29.40;98.10;;;;;;6247374;28;20220;-63
2023/06/23 07:29:00;;;;;;;23.40;16.57;;;29.30;98.40;;;;;;6241571;28;20303;-63
2023/06/23 07:32:04;;;;;;;18.00;16.23;;;29.30;98.60;;;;;;6251484;28;20220;-65
2023/06/23 07:35:08;;;;;;;19.17;17.17;;;29.40;98.40;;;;;;6251661;28;20302;-64
2023/06/23 07:38:11;;;;;;;39.03;18.97;;;29.50;98.40;;;;;;6248883;28;20253;-64
2023/06/23 07:41:16;;;;;;;22.90;18.70;;;29.50;98.70;;;;;;6251616;28;20219;-64
2023/06/23 07:44:21;;;;;;;20.27;18.33;;;29.70;98.70;;;;;;6251757;28;20334;-66
2023/06/23 07:47:24;;;;;;;22.35;17.63;;;30.00;98.20;;;;;;6251666;28;20326;-65
2023/06/23 07:50:27;;;;;;;19.45;17.27;;;30.10;97.50;;;;;;6251861;28;20223;-65
2023/06/23 07:53:31;;;;;;;22.23;16.13;;;30.40;97.30;;;;;;6251336;28;20714;-65
2023/06/23 07:56:35;;;;;;;18.45;16.70;;;31.00;96.60;;;;;;6257966;28;20219;-65
2023/06/23 07:59:39;;;;;;;19.90;16.48;;;31.90;95.50;;;;;;6267944;28;20237;-65
2023/06/23 08:02:42;;;;;;;27.35;17.95;;;32.60;93.90;;;;;;6251649;28;20227;-65
2023/06/23 08:05:46;;;;;;;18.48;16.13;;;33.20;92.80;;;;;;6265338;28;20665;-65
2023/06/23 08:08:49;;;;;;;20.38;16.25;;;33.70;91.80;;;;;;6275950;28;20724;-65
2023/06/23 08:11:54;;;;;;;20.20;17.00;;;33.90;90.20;;;;;;6275465;28;20311;-64
2023/06/23 08:14:57;;;;;;;19.05;16.75;;;34.00;88.90;;;;;;6255635;28;20709;-64
2023/06/23 08:18:00;;;;;;;18.13;15.70;;;34.40;87.00;;;;;;6250903;28;20286;-65
2023/06/23 08:21:04;;;;;;;16.90;14.65;;;34.80;85.00;;;;;;6250893;28;20238;-64
2023/06/23 08:24:07;;;;;;;22.67;15.95;;;35.10;81.40;;;;;;6251011;28;20231;-64
2023/06/23 08:27:12;;;;;;;18.63;15.80;;;34.80;80.40;;;;;;6250951;28;20247;-64
2023/06/23 08:30:16;;;;;;;23.67;16.13;;;34.60;80.30;;;;;;6250394;28;20253;-64
2023/06/23 08:33:20;;;;;;;19.85;16.70;;;34.40;80.60;;;;;;6249873;28;20293;-64
2023/06/23 08:36:23;;;;;;;17.88;16.15;;;34.20;81.70;;;;;;6250058;28;20253;-64
2023/06/23 08:39:26;;;;;;;16.95;14.98;;;33.90;81.90;;;;;;6250755;28;20237;-63
2023/06/23 08:42:31;;;;;;;19.70;16.88;;;34.00;82.60;;;;;;6250030;28;20242;-64
2023/06/23 08:45:38;;;;;;;20.25;15.80;;;34.20;80.80;;;;;;6250478;28;20228;-64
2023/06/23 08:48:46;;;;;;;21.40;16.52;;;34.20;80.80;;;;;;6249790;28;20228;-63
2023/06/23 08:51:50;;;;;;;17.67;16.00;;;34.10;80.40;;;;;;6249999;28;20188;-64
2023/06/23 08:54:54;;;;;;;21.92;16.58;;;34.10;80.20;;;;;;6249711;28;20290;-64
2023/06/23 08:58:00;;;;;;;20.77;16.33;;;33.90;81.00;;;;;;6240921;28;20237;-64
2023/06/23 09:01:05;;;;;;;17.63;15.77;;;33.80;80.70;;;;;;6249875;28;20227;-64
2023/06/23 09:04:09;;;;;;;17.92;15.65;;;33.90;80.10;;;;;;6250213;28;20286;-63
2023/06/23 09:07:14;;;;;;;18.38;16.58;;;33.70;79.00;;;;;;6250287;28;20228;-64
2023/06/23 09:10:18;;;;;;;16.52;14.80;;;33.80;78.80;;;;;;6249668;28;20659;-63
2023/06/23 09:13:27;;;;;;;18.25;16.38;;;33.90;79.10;;;;;;6250013;28;20325;-64
2023/06/23 09:16:31;;;;;;;20.67;15.70;;;34.00;79.80;;;;;;6249750;28;20699;-64
2023/06/23 09:19:35;;;;;;;16.65;15.07;;;34.10;78.90;;;;;;6250217;28;20228;-63
2023/06/23 09:22:40;;;;;;;16.48;14.88;;;34.10;77.70;;;;;;6249664;28;20228;-63
2023/06/23 09:25:45;;;;;;;19.52;17.60;;;34.40;76.50;;;;;;6249589;28;20349;-63
2023/06/23 09:28:53;;;;;;;16.75;15.20;;;34.70;75.60;;;;;;6249473;28;20236;-63
2023/06/23 09:31:59;;;;;;;19.48;16.20;;;35.20;74.70;;;;;;6249197;28;20273;-64
2023/06/23 09:35:02;;;;;;;19.08;15.10;;;35.50;71.10;;;;;;6248901;28;20237;-64
2023/06/23 09:38:05;;;;;;;17.88;15.60;;;35.70;70.30;;;;;;6248773;28;20228;-64
2023/06/23 09:41:10;;;;;;;18.55;14.88;;;35.80;69.10;;;;;;6249043;28;20297;-65
2023/06/23 09:44:15;;;;;;;17.05;15.27;;;36.10;69.10;;;;;;6249581;28;20345;-65
2023/06/23 09:47:19;;;;;;;19.83;15.68;;;36.30;67.30;;;;;;6253562;28;20677;-64
2023/06/23 09:50:25;;;;;;;18.77;16.83;;;36.10;66.80;;;;;;6254376;28;20564;-66
2023/06/23 09:53:32;;;;;;;17.60;15.20;;;35.20;70.10;;;;;;6253699;28;20226;-65
2023/06/23 09:56:36;;;;;;;18.08;16.17;;;35.40;69.40;;;;;;6254065;28;20231;-64
2023/06/23 09:59:41;;;;;;;17.38;15.77;;;35.60;69.70;;;;;;6254002;28;20302;-64
2023/06/23 10:02:46;;;;;;;18.50;16.60;;;35.70;68.10;;;;;;6254413;28;20638;-64
2023/06/23 10:05:49;;;;;;;19.75;16.45;;;35.80;68.60;;;;;;6271079;28;20226;-64
2023/06/23 10:08:57;;;;;;;18.45;15.57;;;35.90;66.90;;;;;;6278650;28;20240;-64
2023/06/23 10:12:00;;;;;;;20.10;18.15;;;35.90;67.70;;;;;;6278928;28;20276;-65
2023/06/23 10:15:07;;;;;;;17.60;16.00;;;36.00;67.60;;;;;;6278746;28;20716;-65
2023/06/23 10:18:11;;;;;;;18.88;16.02;;;35.80;67.80;;;;;;6278449;28;20253;-64
2023/06/23 10:21:15;;;;;;;18.83;16.75;;;35.70;68.10;;;;;;6278528;28;20243;-65
2023/06/23 10:24:22;;;;;;;17.80;16.00;;;35.80;68.80;;;;;;6278106;28;20817;-65
2023/06/23 10:27:27;;;;;;;18.85;16.95;;;35.80;69.70;;;;;;6279224;28;20318;-64
2023/06/23 10:30:31;;;;;;;19.67;17.35;;;36.20;68.50;;;;;;6277969;28;20233;-64
2023/06/23 10:33:37;;;;;;;19.17;15.82;;;35.80;69.00;;;;;;6278048;28;20335;-65
2023/06/23 10:36:42;;;;;;;18.27;16.48;;;35.50;69.30;;;;;;6278067;28;20241;-64
2023/06/23 10:39:50;;;;;;;18.60;16.25;;;35.10;69.20;;;;;;6302528;28;20634;-64
2023/06/23 10:42:59;;;;;;;17.73;15.60;;;34.80;71.30;;;;;;6303145;28;20187;-64
2023/06/23 10:46:04;;;;;;;20.52;16.25;;;34.50;70.00;;;;;;6302948;28;20291;-65
2023/06/23 10:49:08;;;;;;;21.02;15.63;;;34.30;71.30;;;;;;6302473;28;20245;-64
2023/06/23 10:52:12;;;;;;;15.75;14.00;;;33.90;71.90;;;;;;6302434;28;20593;-65
2023/06/23 10:55:35;;;;;;;16.17;14.48;;;33.80;72.20;;;;;;6302706;28;20237;-65
2023/06/23 10:58:50;;;;;;;16.88;14.38;;;33.80;70.90;;;;;;6302098;28;20283;-64
2023/06/23 11:02:19;;;;;;;16.27;14.70;;;33.40;71.10;;;;;;6302409;28;20306;-64
2023/06/23 11:05:25;;;;;;;15.13;8.38;;;33.20;71.10;;;;;;6278686;28;20218;-64
2023/06/23 11:08:31;;;;;;;13.00;6.68;;;33.20;66.50;;;;;;6301981;28;20230;-64
2023/06/23 11:11:35;;;;;;;9.50;5.63;;;32.80;64.90;;;;;;6302408;28;20241;-64
2023/06/23 11:14:44;;;;;;;11.30;5.78;;;32.20;61.90;;;;;;6301905;28;20280;-64
2023/06/23 11:17:49;;;;;;;8.02;5.78;;;31.50;62.20;;;;;;6302013;28;20226;-64
2023/06/23 11:20:53;;;;;;;8.45;4.85;;;30.70;62.80;;;;;;6302104;28;20237;-65
2023/06/23 11:24:13;;;;;;;13.90;6.20;;;29.90;64.70;;;;;;6301771;28;20707;-66
2023/06/23 11:27:16;;;;;;;12.00;4.80;;;28.60;66.00;;;;;;6301543;28;20226;-65
2023/06/23 11:30:20;;;;;;;11.70;4.33;;;27.50;67.90;;;;;;6302026;28;20232;-65
2023/06/23 11:33:32;;;;;;;10.10;4.20;;;26.60;69.10;;;;;;6301594;28;20306;-65
2023/06/23 11:36:35;;;;;;;7.77;4.20;;;26.00;71.90;;;;;;6301748;28;20230;-66
2023/06/23 11:39:39;;;;;;;10.00;4.30;;;25.70;74.40;;;;;;6301425;28;20245;-66
2023/06/23 11:42:46;;;;;;;9.97;4.07;;;25.40;75.20;;;;;;6301597;28;20210;-66
2023/06/23 11:45:53;;;;;;;8.10;3.90;;;25.20;77.80;;;;;;6301857;28;20610;-66
2023/06/23 11:48:58;;;;;;;8.00;4.70;;;25.10;82.20;;;;;;6301360;28;20232;-66
2023/06/23 11:52:05;;;;;;;6.23;4.30;;;24.90;86.10;;;;;;6301189;28;20217;-66
2023/06/23 11:55:09;;;;;;;7.40;4.40;;;24.70;87.30;;;;;;6301584;28;20693;-66
2023/06/23 11:58:12;;;;;;;8.63;3.93;;;24.90;89.40;;;;;;6301090;28;20234;-65
2023/06/23 12:01:17;;;;;;;8.03;4.70;;;25.30;91.10;;;;;;6301310;28;20226;-66
2023/06/23 12:04:23;;;;;;;7.97;3.70;;;25.50;91.50;;;;;;6287538;28;20237;-66
2023/06/23 12:07:30;;;;;;;8.07;4.10;;;25.40;91.40;;;;;;6300661;28;20249;-65
2023/06/23 12:10:37;;;;;;;8.30;3.80;;;25.30;91.30;;;;;;6300787;28;20303;-66
2023/06/23 12:13:40;;;;;;;5.10;4.60;;;25.30;92.00;;;;;;6300820;28;20222;-66
2023/06/23 12:16:44;;;;;;;5.50;4.20;;;25.40;93.90;;;;;;6301259;28;20240;-66
2023/06/23 12:19:48;;;;;;;7.50;5.20;;;25.50;93.30;;;;;;6277931;28;20229;-61
2023/06/23 12:22:54;;;;;;;6.83;4.17;;;25.50;95.40;;;;;;6274736;28;20229;-61
2023/06/23 12:25:59;;;;;;;6.23;4.50;;;25.90;95.20;;;;;;6275655;28;20337;-61
2023/06/23 12:29:11;;;;;;;5.53;4.73;;;26.10;94.00;;;;;;6275689;28;20241;-61
2023/06/23 12:32:17;;;;;;;9.10;4.63;;;26.30;93.40;;;;;;6275483;28;20249;-61
2023/06/23 12:35:22;;;;;;;5.57;4.10;;;26.40;92.90;;;;;;6275693;28;20223;-61
2023/06/23 12:38:26;;;;;;;6.63;4.00;;;26.40;92.60;;;;;;6274377;28;20244;-62
2023/06/23 12:41:30;;;;;;;8.37;3.97;;;26.40;92.60;;;;;;6274953;28;20530;-65
2023/06/23 12:44:35;;;;;;;5.93;3.73;;;26.30;92.50;;;;;;6275289;28;20718;-64
2023/06/23 12:47:39;;;;;;;7.23;3.30;;;26.30;93.00;;;;;;6275358;28;20230;-62
2023/06/23 12:50:45;;;;;;;4.50;2.80;;;26.10;92.30;;;;;;6275336;28;20686;-63
2023/06/23 12:53:48;;;;;;;4.83;2.93;;;25.90;92.30;;;;;;6273001;28;20305;-62
2023/06/23 12:56:51;;;;;;;3.20;2.70;;;26.00;91.90;;;;;;6277145;28;20229;-62
2023/06/23 12:59:54;;;;;;;5.27;2.50;;;25.90;91.70;;;;;;6274887;28;20239;-66
2023/06/23 13:02:58;;;;;;;5.07;2.77;;;25.70;91.90;;;;;;6274871;28;20619;-65
2023/06/23 13:06:03;;;;;;;4.60;2.50;;;25.60;91.80;;;;;;6274868;28;20227;-65
2023/06/23 13:09:07;;;;;;;2.77;2.27;;;25.70;90.50;;;;;;6274643;28;20675;-64
2023/06/23 13:12:11;;;;;;;5.73;3.23;;;25.40;90.20;;;;;;6274133;28;20236;-66
2023/06/23 13:15:17;;;;;;;4.97;2.70;;;25.00;92.60;;;;;;6274284;28;20223;-63
2023/06/23 13:18:20;;;;;;;3.40;2.43;;;24.70;90.80;;;;;;6274373;28;20575;-66
2023/06/23 13:21:28;;;;;;;6.30;2.40;;;24.50;91.70;;;;;;6274587;28;20569;-64
2023/06/23 13:24:31;;;;;;;7.10;3.03;;;24.20;93.10;;;;;;6273750;28;20223;-64
2023/06/23 13:27:35;;;;;;;3.23;2.30;;;23.90;94.10;;;;;;6264162;28;20245;-64
2023/06/23 13:30:39;;;;;;;5.50;2.70;;;23.80;94.20;;;;;;6278296;28;20271;-64
2023/06/23 13:33:44;;;;;;;3.20;2.80;;;23.60;95.70;;;;;;6284238;28;20589;-65
2023/06/23 13:36:48;;;;;;;3.43;2.57;;;23.00;97.30;;;;;;6283247;28;20327;-63
2023/06/23 13:39:52;;;;;;;3.80;2.37;;;22.60;98.80;;;;;;6282305;28;20655;-64
2023/06/23 13:42:59;;;;;;;5.23;2.30;;;22.20;99.60;;;;;;6282940;28;20206;-63
2023/06/23 13:46:02;;;;;;;5.07;2.70;;;22.20;99.90;;;;;;6281725;28;20212;-65
2023/06/23 13:49:05;;;;;;;3.90;2.40;;;22.10;99.90;;;;;;6283211;28;20682;-63
2023/06/23 13:52:10;;;;;;;4.60;2.40;;;21.80;99.90;;;;;;6281019;28;20237;-63
2023/06/23 13:55:15;;;;;;;2.20;2.00;;;21.70;99.90;;;;;;6282389;28;20235;-63
2023/06/23 13:58:18;;;;;;;3.17;2.00;;;21.60;99.90;;;;;;6279985;28;20243;-63
2023/06/23 14:01:21;;;;;;;3.87;2.33;;;21.60;99.90;;;;;;6283254;28;20250;-63
2023/06/23 14:04:25;;;;;;;4.03;2.27;;;21.60;99.90;;;;;;6283098;28;20230;-65
2023/06/23 14:07:30;;;;;;;3.00;1.90;;;21.50;99.90;;;;;;6281033;28;20240;-64
2023/06/23 14:10:34;;;;;;;5.17;2.50;;;21.40;99.90;;;;;;6282489;28;20309;-63
2023/06/23 14:13:37;;;;;;;3.90;2.40;;;21.50;99.90;;;;;;6282797;28;20357;-64
2023/06/23 14:16:40;;;;;;;7.03;2.60;;;21.50;99.90;;;;;;6278999;28;20804;-63
2023/06/23 14:19:43;;;;;;;6.70;3.30;;;21.70;99.90;;;;;;6279758;28;20373;-63
2023/06/23 14:22:48;;;;;;;5.20;3.23;;;21.90;99.90;;;;;;6284011;28;20223;-65
2023/06/23 14:25:53;;;;;;;7.57;2.83;;;21.90;99.90;;;;;;6281197;28;20232;-63
2023/06/23 14:28:56;;;;;;;4.47;2.47;;;22.00;99.90;;;;;;6283169;28;20353;-64
2023/06/23 14:31:59;;;;;;;3.63;2.87;;;22.10;99.90;;;;;;6287676;28;20242;-63
2023/06/23 14:35:03;;;;;;;4.13;2.77;;;22.00;99.90;;;;;;6283550;28;20328;-64
2023/06/23 14:38:07;;;;;;;4.20;2.40;;;22.00;99.90;;;;;;6286573;28;20301;-65
2023/06/23 14:41:11;;;;;;;4.73;2.53;;;22.00;99.90;;;;;;6284211;28;20247;-66
2023/06/23 14:44:14;;;;;;;3.40;2.20;;;22.00;99.90;;;;;;6287033;28;20563;-65
2023/06/23 14:47:17;;;;;;;2.80;2.30;;;22.00;99.90;;;;;;6287718;28;20231;-64
2023/06/23 14:50:20;;;;;;;2.67;2.17;;;22.10;99.90;;;;;;6286279;28;20693;-65
2023/06/23 14:53:25;;;;;;;3.20;2.40;;;22.00;99.90;;;;;;6288724;28;20231;-63
2023/06/23 14:56:29;;;;;;;4.83;2.50;;;21.90;99.90;;;;;;6286359;28;20237;-65
2023/06/23 14:59:32;;;;;;;4.17;1.70;;;21.90;99.90;;;;;;6283430;28;20609;-63
2023/06/23 15:02:35;;;;;;;3.93;2.40;;;21.90;99.90;;;;;;6277906;28;20226;-63
2023/06/23 15:05:39;;;;;;;3.53;1.77;;;22.00;99.90;;;;;;6286520;28;20231;-63
2023/06/23 15:08:44;;;;;;;2.57;2.03;;;22.00;99.90;;;;;;6286720;28;20261;-64
2023/06/23 15:11:47;;;;;;;1.87;1.70;;;21.80;99.90;;;;;;6283583;28;20227;-64
2023/06/23 15:14:50;;;;;;;2.30;2.10;;;21.80;99.90;;;;;;6291733;28;20663;-63
2023/06/23 15:17:53;;;;;;;2.17;1.97;;;21.70;99.90;;;;;;6281592;28;20231;-64
2023/06/23 15:20:57;;;;;;;3.07;2.30;;;21.60;99.90;;;;;;6283137;28;20318;-64
2023/06/23 15:24:01;;;;;;;2.93;2.40;;;21.70;99.90;;;;;;6277256;28;20228;-65
2023/06/23 15:27:07;;;;;;;3.13;2.80;;;21.60;99.90;;;;;;6276503;28;20310;-63
2023/06/23 15:30:12;;;;;;;2.90;2.60;;;21.40;99.90;;;;;;6276494;28;20306;-64
2023/06/23 15:33:15;;;;;;;4.37;3.33;;;21.30;99.90;;;;;;6276679;28;20275;-63
2023/06/23 15:36:18;;;;;;;3.50;2.90;;;21.10;99.90;;;;;;6276099;28;20237;-63
2023/06/23 15:39:25;;;;;;;2.40;2.20;;;21.00;99.90;;;;;;6276357;28;20232;-65
2023/06/23 15:42:28;;;;;;;4.00;3.00;;;20.90;99.90;;;;;;6276008;28;20309;-63
2023/06/23 15:45:32;;;;;;;4.63;3.47;;;20.80;99.90;;;;;;6275472;28;20237;-63
2023/06/23 15:48:36;;;;;;;3.40;3.10;;;20.70;99.90;;;;;;6275040;28;20220;-63